Time;durP1;ratioP1;P1;durP2;ratioP2;P2;SDS_P1;SDS_P2;PMS_P1;PMS_P2;Temp;Humidity;BMP_temperature;BMP_pressure;BME280_temperature;BME280_humidity;BME280_pressure;Samples;Min_cycle;Max_cycle;Signal;HPM_P1;HPM_P2
2021/10/10 00:01:23;;;;;;;18.65;11.88;;;14.60;51.20;;;;;;5010007;28;20119;-87
2021/10/10 00:03:49;;;;;;;20.42;12.50;;;14.60;51.20;;;;;;4996399;28;20549;-88
2021/10/10 00:06:18;;;;;;;19.80;11.52;;;14.60;51.20;;;;;;4996061;28;20120;-88
2021/10/10 00:08:47;;;;;;;20.98;12.25;;;14.60;51.20;;;;;;5005570;28;20034;-83
2021/10/10 00:11:19;;;;;;;20.33;12.32;;;14.60;51.20;;;;;;4995386;28;20040;-87
2021/10/10 00:13:47;;;;;;;19.05;11.90;;;14.60;51.20;;;;;;4995769;28;20041;-86
2021/10/10 00:16:17;;;;;;;16.38;11.95;;;14.50;51.10;;;;;;5023113;28;20041;-94
2021/10/10 00:18:49;;;;;;;20.75;12.05;;;14.50;51.70;;;;;;5004800;28;20033;-93
2021/10/10 00:21:21;;;;;;;24.58;11.95;;;14.60;53.60;;;;;;4989932;28;20051;-96
2021/10/10 00:23:47;;;;;;;23.00;11.50;;;14.60;55.40;;;;;;5014536;28;20033;-95
2021/10/10 00:26:13;;;;;;;22.60;11.10;;;14.60;56.40;;;;;;4984752;28;20079;-95
2021/10/10 00:28:41;;;;;;;18.75;11.85;;;14.70;56.90;;;;;;4981310;28;20442;-96
2021/10/10 00:31:08;;;;;;;19.98;11.32;;;14.70;57.20;;;;;;4997731;28;20036;-93
2021/10/10 00:33:34;;;;;;;20.08;11.40;;;14.80;57.30;;;;;;4996330;28;20060;-95
2021/10/10 00:36:03;;;;;;;17.38;10.10;;;14.80;57.50;;;;;;4983362;28;20033;-96
2021/10/10 00:38:32;;;;;;;17.92;11.10;;;14.90;57.50;;;;;;4998995;28;20505;-92
2021/10/10 00:40:58;;;;;;;19.70;11.65;;;14.90;57.60;;;;;;4982759;28;20025;-90
2021/10/10 00:43:24;;;;;;;19.45;11.25;;;14.90;57.50;;;;;;5010291;28;20036;-88
2021/10/10 00:45:51;;;;;;;19.90;11.07;;;14.90;57.60;;;;;;4993343;28;20026;-91
2021/10/10 00:48:17;;;;;;;16.67;10.93;;;14.90;57.60;;;;;;4981780;28;20030;-91
2021/10/10 00:50:44;;;;;;;20.38;10.98;;;15.00;57.60;;;;;;4996610;28;20038;-90
2021/10/10 00:53:14;;;;;;;20.20;10.98;;;15.00;57.70;;;;;;4994654;28;20077;-90
2021/10/10 00:55:42;;;;;;;19.13;11.32;;;14.90;57.60;;;;;;4979622;28;20475;-87
2021/10/10 00:58:09;;;;;;;17.60;11.52;;;15.00;57.60;;;;;;5011873;28;20029;-88
2021/10/10 01:00:35;;;;;;;17.55;10.93;;;15.00;57.60;;;;;;5007079;28;20037;-89
2021/10/10 01:03:01;;;;;;;19.98;11.27;;;15.00;57.70;;;;;;5006008;28;20089;-87
2021/10/10 01:05:28;;;;;;;19.25;11.90;;;15.00;57.80;;;;;;5029283;28;20025;-87
2021/10/10 01:07:54;;;;;;;16.58;11.77;;;15.10;57.70;;;;;;5018529;28;20018;-88
2021/10/10 01:10:20;;;;;;;18.25;11.02;;;15.10;57.70;;;;;;5014233;28;20113;-87
2021/10/10 01:12:46;;;;;;;18.00;11.48;;;15.00;57.70;;;;;;4999063;28;20085;-93
2021/10/10 01:15:13;;;;;;;20.50;11.85;;;15.10;58.20;;;;;;4997151;28;20527;-90
2021/10/10 01:17:39;;;;;;;19.15;11.05;;;15.10;57.60;;;;;;4995632;28;20416;-93
2021/10/10 01:20:08;;;;;;;17.45;12.02;;;15.10;57.60;;;;;;4995985;28;20065;-93
2021/10/10 01:22:34;;;;;;;17.38;11.35;;;15.10;57.60;;;;;;5013817;28;20080;-92
2021/10/10 01:25:01;;;;;;;18.08;11.63;;;15.10;57.50;;;;;;5003914;28;20045;-86
2021/10/10 01:27:27;;;;;;;19.55;11.50;;;15.10;57.40;;;;;;5007491;28;20033;-87
2021/10/10 01:29:53;;;;;;;18.27;11.85;;;15.10;57.30;;;;;;5009085;28;20030;-90
2021/10/10 01:32:19;;;;;;;19.55;11.60;;;15.10;57.30;;;;;;5022858;28;20056;-88
2021/10/10 01:34:46;;;;;;;14.88;10.57;;;15.00;57.30;;;;;;4998718;28;20056;-88
2021/10/10 01:37:13;;;;;;;17.98;10.27;;;15.10;57.40;;;;;;5004421;28;20035;-90
2021/10/10 01:39:39;;;;;;;21.70;11.43;;;15.10;57.40;;;;;;5003090;28;20030;-88
2021/10/10 01:42:05;;;;;;;17.58;11.52;;;15.10;57.30;;;;;;4986379;28;20409;-89
2021/10/10 01:44:31;;;;;;;18.08;11.63;;;15.10;57.50;;;;;;5004104;28;20121;-91
2021/10/10 01:46:57;;;;;;;18.58;11.63;;;15.10;57.50;;;;;;5012856;28;20086;-90
2021/10/10 01:49:23;;;;;;;15.70;11.25;;;15.10;57.50;;;;;;5010845;28;20034;-87
2021/10/10 01:51:49;;;;;;;16.75;10.60;;;15.10;57.40;;;;;;5016769;28;20058;-90
2021/10/10 01:54:15;;;;;;;17.60;11.20;;;15.10;57.40;;;;;;4995767;28;20072;-93
2021/10/10 01:56:41;;;;;;;16.13;11.45;;;15.10;57.40;;;;;;5015884;28;20049;-92
2021/10/10 01:59:07;;;;;;;19.63;11.25;;;15.10;57.50;;;;;;5000092;28;20030;-92
2021/10/10 02:01:33;;;;;;;18.27;11.25;;;15.10;58.20;;;;;;5033683;28;20093;-88
2021/10/10 02:04:00;;;;;;;16.75;11.02;;;15.10;57.60;;;;;;5036770;28;20026;-87
2021/10/10 02:06:27;;;;;;;16.83;10.90;;;15.10;57.70;;;;;;5033766;28;20038;-92
2021/10/10 02:08:52;;;;;;;18.48;11.73;;;15.10;57.60;;;;;;5023462;28;20033;-93
2021/10/10 02:11:19;;;;;;;17.60;11.13;;;15.10;57.60;;;;;;5027247;28;20053;-89
2021/10/10 02:13:45;;;;;;;18.17;10.98;;;15.00;57.50;;;;;;5009359;28;20041;-89
2021/10/10 02:16:11;;;;;;;16.10;11.50;;;15.00;57.50;;;;;;5011084;28;20048;-93
2021/10/10 02:18:37;;;;;;;18.98;11.65;;;15.10;57.50;;;;;;5011113;28;20033;-93
2021/10/10 02:21:03;;;;;;;16.08;10.93;;;15.10;57.50;;;;;;5013563;28;20044;-93
2021/10/10 02:23:29;;;;;;;20.88;12.60;;;15.10;57.50;;;;;;5010496;28;20038;-94
2021/10/10 02:25:55;;;;;;;17.40;10.93;;;15.10;57.40;;;;;;5006668;28;20083;-92
2021/10/10 02:28:21;;;;;;;19.83;11.10;;;15.00;57.40;;;;;;5006138;28;20067;-90
2021/10/10 02:30:49;;;;;;;17.17;11.00;;;15.10;57.40;;;;;;5009809;28;20116;-91
2021/10/10 02:33:18;;;;;;;17.85;11.20;;;15.10;57.50;;;;;;4995328;28;20021;-93
2021/10/10 02:35:44;;;;;;;21.40;11.93;;;15.10;57.50;;;;;;5006533;28;20029;-91
2021/10/10 02:38:11;;;;;;;16.63;11.20;;;15.10;57.40;;;;;;4989688;28;20107;-91
2021/10/10 02:40:37;;;;;;;19.30;12.05;;;15.00;57.40;;;;;;4991468;28;20485;-91
2021/10/10 02:43:03;;;;;;;17.60;10.73;;;15.00;57.40;;;;;;4990278;28;20698;-91
2021/10/10 02:45:29;;;;;;;18.52;10.85;;;15.00;57.40;;;;;;4994217;28;20034;-91
2021/10/10 02:47:55;;;;;;;16.48;10.75;;;15.00;57.50;;;;;;4995123;28;20085;-92
2021/10/10 02:50:21;;;;;;;16.25;11.05;;;15.00;57.50;;;;;;5007758;28;20033;-91
2021/10/10 02:52:47;;;;;;;18.50;11.27;;;15.00;57.50;;;;;;4990291;28;20565;-93
2021/10/10 02:55:13;;;;;;;17.98;11.43;;;15.00;57.60;;;;;;4990295;28;20053;-89
2021/10/10 02:57:39;;;;;;;19.60;10.98;;;15.00;57.50;;;;;;5021125;28;20046;-86
2021/10/10 03:00:07;;;;;;;20.13;11.32;;;15.00;57.60;;;;;;5020064;28;20018;-84
2021/10/10 03:02:32;;;;;;;17.30;11.48;;;15.00;57.60;;;;;;5008359;28;20131;-94
2021/10/10 03:04:58;;;;;;;16.98;10.75;;;15.00;57.60;;;;;;5012712;28;20521;-95
2021/10/10 03:07:24;;;;;;;16.65;10.73;;;15.00;57.60;;;;;;5011708;28;20030;-92
2021/10/10 03:09:50;;;;;;;31.10;11.15;;;15.00;57.60;;;;;;4994450;28;20037;-93
2021/10/10 03:12:16;;;;;;;18.02;10.77;;;15.00;57.60;;;;;;5007310;28;20041;-92
2021/10/10 03:14:43;;;;;;;15.18;10.38;;;15.00;57.60;;;;;;4991692;28;20552;-90
2021/10/10 03:17:09;;;;;;;18.15;11.00;;;15.00;57.70;;;;;;5006953;28;20042;-90
2021/10/10 03:19:35;;;;;;;18.65;10.38;;;15.00;57.70;;;;;;5005844;28;20124;-91
2021/10/10 03:22:01;;;;;;;18.17;11.05;;;15.00;57.70;;;;;;4992159;28;20033;-90
2021/10/10 03:24:27;;;;;;;18.13;10.82;;;15.00;57.70;;;;;;5006667;28;20079;-94
2021/10/10 03:26:53;;;;;;;15.95;10.55;;;15.00;57.70;;;;;;4995328;28;20053;-93
2021/10/10 03:29:18;;;;;;;17.02;10.73;;;15.00;57.70;;;;;;5008489;28;20033;-93
2021/10/10 03:31:44;;;;;;;16.85;10.85;;;15.00;57.80;;;;;;5003467;28;20030;-91
2021/10/10 03:34:10;;;;;;;22.17;11.52;;;15.00;57.80;;;;;;4992253;28;20034;-93
2021/10/10 03:36:36;;;;;;;21.73;11.70;;;15.00;57.80;;;;;;4995811;28;20040;-93
2021/10/10 03:39:02;;;;;;;21.90;11.45;;;15.00;57.90;;;;;;5004543;28;20034;-92
2021/10/10 03:41:28;;;;;;;18.42;12.13;;;15.00;57.80;;;;;;5005162;28;20479;-91
2021/10/10 03:43:54;;;;;;;19.17;11.80;;;15.00;57.90;;;;;;5005958;28;20121;-91
2021/10/10 03:46:20;;;;;;;20.10;10.88;;;15.00;57.80;;;;;;4993588;28;20048;-91
2021/10/10 03:48:46;;;;;;;20.38;12.10;;;15.00;57.90;;;;;;4986737;28;20481;-91
2021/10/10 03:51:12;;;;;;;21.17;12.13;;;15.00;57.90;;;;;;5006843;28;20018;-91
2021/10/10 03:54:11;;;;;;;23.55;12.15;;;15.00;57.90;;;;;;5020132;28;20052;-91
2021/10/10 03:56:26;;;;;;;22.05;12.15;;;15.00;57.80;;;;;;5012967;28;20018;-94
2021/10/10 03:58:52;;;;;;;19.45;11.88;;;15.00;57.90;;;;;;4995640;28;20042;-93
2021/10/10 04:01:18;;;;;;;18.02;11.77;;;15.00;57.90;;;;;;4996916;28;20033;-91
2021/10/10 04:03:44;;;;;;;18.77;11.75;;;15.00;57.90;;;;;;4994093;28;20053;-90
2021/10/10 04:06:10;;;;;;;18.95;11.98;;;15.00;57.90;;;;;;4992277;28;20490;-90
2021/10/10 04:08:41;;;;;;;19.27;12.50;;;15.00;57.90;;;;;;5006615;28;20033;-89
2021/10/10 04:11:07;;;;;;;20.65;11.98;;;15.00;57.90;;;;;;4991988;28;20449;-90
2021/10/10 04:13:33;;;;;;;20.70;11.95;;;15.00;57.90;;;;;;4994711;28;20050;-91
2021/10/10 04:15:59;;;;;;;22.90;12.07;;;15.00;57.90;;;;;;4987215;28;20460;-94
2021/10/10 04:18:25;;;;;;;19.55;11.85;;;15.00;57.90;;;;;;4993295;28;20038;-88
2021/10/10 04:20:51;;;;;;;17.95;11.32;;;15.00;57.90;;;;;;5005675;28;20036;-90
2021/10/10 04:23:17;;;;;;;18.90;11.88;;;15.00;57.60;;;;;;4990880;28;20444;-89
2021/10/10 04:25:42;;;;;;;21.77;12.05;;;15.00;57.70;;;;;;4994721;28;20034;-87
2021/10/10 04:28:08;;;;;;;17.95;11.10;;;15.00;57.70;;;;;;5008702;28;20577;-89
2021/10/10 04:30:34;;;;;;;20.73;11.93;;;15.00;57.80;;;;;;5006869;28;20112;-89
2021/10/10 04:33:00;;;;;;;17.65;12.18;;;15.00;57.80;;;;;;4998136;28;20034;-88
2021/10/10 04:35:26;;;;;;;18.60;11.65;;;15.00;57.80;;;;;;4989386;28;20121;-89
2021/10/10 04:37:52;;;;;;;19.75;10.60;;;15.00;57.80;;;;;;4997877;28;20038;-90
2021/10/10 04:40:18;;;;;;;18.42;11.38;;;15.00;57.80;;;;;;4991480;28;20041;-88
2021/10/10 04:42:44;;;;;;;22.65;11.15;;;15.00;57.80;;;;;;5011249;28;20498;-89
2021/10/10 04:45:10;;;;;;;16.92;11.30;;;15.10;57.80;;;;;;4994068;28;20116;-92
2021/10/10 04:47:36;;;;;;;23.00;12.15;;;15.10;57.80;;;;;;5017786;28;20025;-88
2021/10/10 04:50:03;;;;;;;21.60;12.20;;;15.10;57.80;;;;;;5030458;28;20033;-88
2021/10/10 04:52:30;;;;;;;19.15;12.00;;;15.10;57.80;;;;;;5010612;28;20538;-89
2021/10/10 04:54:56;;;;;;;21.13;12.20;;;15.10;57.80;;;;;;5009569;28;20099;-89
2021/10/10 04:57:22;;;;;;;19.25;11.90;;;15.10;57.70;;;;;;4996314;28;20124;-88
2021/10/10 04:59:49;;;;;;;22.13;12.70;;;15.20;58.40;;;;;;5008492;28;20125;-89
2021/10/10 05:02:20;;;;;;;20.90;12.40;;;15.20;57.80;;;;;;4995504;28;20037;-90
2021/10/10 05:04:47;;;;;;;19.42;12.63;;;15.20;57.70;;;;;;5007827;28;20034;-89
2021/10/10 05:07:13;;;;;;;22.83;12.60;;;15.10;57.60;;;;;;5010413;28;20030;-90
2021/10/10 05:09:39;;;;;;;22.08;12.68;;;15.20;57.80;;;;;;5012012;28;20034;-90
2021/10/10 05:12:05;;;;;;;23.48;12.63;;;15.20;57.80;;;;;;5007709;28;20056;-90
2021/10/10 05:14:31;;;;;;;18.60;11.77;;;15.30;57.80;;;;;;4994652;28;20116;-90
2021/10/10 05:16:58;;;;;;;19.73;12.68;;;15.30;57.70;;;;;;5008378;28;20037;-89
2021/10/10 05:19:25;;;;;;;23.92;12.75;;;15.40;57.70;;;;;;4995346;28;20034;-90
2021/10/10 05:21:50;;;;;;;19.15;12.00;;;15.40;57.50;;;;;;5006576;28;20132;-89
2021/10/10 05:24:16;;;;;;;17.83;11.68;;;15.60;57.50;;;;;;4995138;28;20167;-92
2021/10/10 05:26:42;;;;;;;20.25;11.70;;;15.70;57.50;;;;;;4973774;28;20030;-88
2021/10/10 05:29:08;;;;;;;17.67;11.32;;;15.80;57.30;;;;;;4993222;28;20031;-91
2021/10/10 05:31:35;;;;;;;17.83;11.38;;;15.90;57.20;;;;;;4994631;28;20029;-90
2021/10/10 05:34:01;;;;;;;21.05;11.55;;;16.00;56.90;;;;;;5012067;28;20040;-88
2021/10/10 05:36:27;;;;;;;18.77;11.60;;;16.20;56.80;;;;;;4991501;28;20030;-90
2021/10/10 05:38:53;;;;;;;17.67;10.65;;;16.30;56.60;;;;;;4993564;28;20401;-91
2021/10/10 05:41:19;;;;;;;20.48;10.80;;;16.40;56.50;;;;;;5003035;28;20022;-90
2021/10/10 05:43:45;;;;;;;17.92;10.73;;;16.40;56.40;;;;;;5018127;28;20044;-86
2021/10/10 05:46:11;;;;;;;14.85;9.65;;;16.60;56.40;;;;;;5010717;28;20102;-87
2021/10/10 05:48:37;;;;;;;19.08;11.15;;;16.60;56.30;;;;;;5012082;28;20093;-87
2021/10/10 05:51:03;;;;;;;19.65;10.77;;;16.70;56.20;;;;;;5011170;28;20038;-88
2021/10/10 05:53:29;;;;;;;16.80;10.52;;;16.80;56.10;;;;;;5004896;28;20524;-88
2021/10/10 05:55:59;;;;;;;17.33;10.18;;;16.90;56.10;;;;;;4989262;28;20041;-89
2021/10/10 05:58:27;;;;;;;13.70;9.65;;;17.00;56.20;;;;;;5005585;28;20117;-88
2021/10/10 06:00:54;;;;;;;15.90;10.63;;;17.00;56.10;;;;;;5005801;28;20112;-89
2021/10/10 06:03:21;;;;;;;15.20;10.57;;;17.10;56.10;;;;;;5010239;28;20496;-90
2021/10/10 06:05:47;;;;;;;15.38;9.95;;;17.20;56.00;;;;;;4992813;28;20034;-90
2021/10/10 06:08:13;;;;;;;14.70;9.90;;;17.30;55.90;;;;;;4993746;28;20373;-90
2021/10/10 06:10:40;;;;;;;17.15;9.75;;;17.40;55.90;;;;;;4994656;28;20500;-91
2021/10/10 06:13:09;;;;;;;13.23;9.15;;;17.50;55.90;;;;;;4993581;28;20416;-90
2021/10/10 06:15:35;;;;;;;16.85;10.13;;;17.60;55.90;;;;;;4993561;28;20439;-90
2021/10/10 06:18:02;;;;;;;14.25;9.27;;;17.70;55.90;;;;;;4977365;28;21455;-89
2021/10/10 06:20:28;;;;;;;14.07;10.00;;;17.80;55.80;;;;;;4977719;28;20076;-89
2021/10/10 06:22:54;;;;;;;15.05;9.25;;;17.90;55.80;;;;;;4992265;28;20077;-90
2021/10/10 06:25:20;;;;;;;14.68;9.20;;;17.90;55.70;;;;;;4993018;28;20073;-89
2021/10/10 06:27:46;;;;;;;16.52;9.15;;;18.00;56.30;;;;;;4994525;28;20099;-89
2021/10/10 06:30:12;;;;;;;14.55;8.80;;;18.10;55.70;;;;;;5005924;28;20030;-89
2021/10/10 06:32:38;;;;;;;13.40;8.65;;;18.10;55.60;;;;;;5009754;28;20034;-90
2021/10/10 06:35:07;;;;;;;14.02;9.40;;;18.20;55.60;;;;;;4995417;28;20088;-89
2021/10/10 06:37:33;;;;;;;14.18;8.63;;;18.30;55.60;;;;;;5004422;28;20022;-85
2021/10/10 06:39:59;;;;;;;12.02;8.52;;;18.30;55.60;;;;;;5017092;28;20028;-89
2021/10/10 06:42:25;;;;;;;10.90;8.15;;;18.40;55.60;;;;;;5015396;28;20057;-89
2021/10/10 06:44:51;;;;;;;11.80;8.25;;;18.50;55.70;;;;;;4993900;28;20049;-89
2021/10/10 06:47:17;;;;;;;11.32;8.07;;;18.50;55.70;;;;;;5007542;28;21152;-87
2021/10/10 06:49:43;;;;;;;13.13;8.32;;;18.60;55.70;;;;;;4990614;28;20037;-92
2021/10/10 06:52:09;;;;;;;12.45;7.32;;;18.70;55.80;;;;;;5008068;28;20481;-94
2021/10/10 06:54:35;;;;;;;10.35;7.38;;;18.70;56.40;;;;;;5008816;28;20065;-93
2021/10/10 06:57:01;;;;;;;15.02;8.00;;;18.80;55.80;;;;;;4972831;28;20536;-83
2021/10/10 06:59:27;;;;;;;15.45;8.27;;;18.90;55.80;;;;;;5007513;28;20029;-82
2021/10/10 07:01:53;;;;;;;13.32;8.23;;;18.90;54.70;;;;;;5007903;28;20493;-82
2021/10/10 07:04:19;;;;;;;14.55;7.65;;;19.00;52.70;;;;;;4993434;28;20053;-83
2021/10/10 07:06:44;;;;;;;14.77;7.85;;;19.10;53.10;;;;;;4989170;28;20117;-84
2021/10/10 07:09:11;;;;;;;13.82;8.45;;;19.20;52.20;;;;;;5007470;28;20053;-83
2021/10/10 07:11:38;;;;;;;22.77;8.00;;;19.20;51.50;;;;;;5005433;28;20365;-83
2021/10/10 07:14:05;;;;;;;14.80;7.82;;;19.30;49.30;;;;;;5009687;28;20069;-85
2021/10/10 07:16:33;;;;;;;15.25;7.60;;;19.20;49.40;;;;;;5010581;28;20065;-84
2021/10/10 07:19:00;;;;;;;11.65;8.10;;;19.30;50.50;;;;;;5012995;28;20052;-83
2021/10/10 07:26:36;;;;;;;11.73;7.00;;;19.40;50.30;;;;;;4988117;28;20022;-84
2021/10/10 07:29:04;;;;;;;18.70;7.50;;;19.40;51.00;;;;;;4992645;28;20030;-85
2021/10/10 07:31:30;;;;;;;12.65;6.95;;;19.40;51.50;;;;;;5005774;28;20037;-86
2021/10/10 07:33:56;;;;;;;13.85;6.65;;;19.50;52.10;;;;;;5007606;28;20033;-84
2021/10/10 07:36:22;;;;;;;10.45;6.53;;;19.50;52.20;;;;;;5011025;28;20034;-85
2021/10/10 07:38:48;;;;;;;9.48;6.30;;;19.50;51.90;;;;;;4990716;28;20026;-84
2021/10/10 07:41:14;;;;;;;11.27;6.50;;;19.60;51.70;;;;;;5001923;28;20029;-85
2021/10/10 07:43:42;;;;;;;14.30;6.72;;;19.60;51.70;;;;;;5004540;28;20077;-84
2021/10/10 07:46:19;;;;;;;12.43;6.95;;;19.60;51.40;;;;;;5008902;28;20029;-85
2021/10/10 07:48:45;;;;;;;15.55;7.38;;;19.60;50.90;;;;;;5012762;28;20034;-84
2021/10/10 07:51:11;;;;;;;14.10;6.72;;;19.60;50.40;;;;;;4995718;28;20128;-85
2021/10/10 07:53:37;;;;;;;11.23;7.07;;;19.60;50.10;;;;;;5012082;28;20513;-86
2021/10/10 07:56:03;;;;;;;13.38;6.53;;;19.60;49.10;;;;;;5032504;28;20124;-84
2021/10/10 07:58:29;;;;;;;7.95;6.07;;;19.60;49.40;;;;;;5025594;28;20084;-86
2021/10/10 08:00:55;;;;;;;11.75;5.95;;;19.60;49.70;;;;;;5001205;28;20030;-85
2021/10/10 08:03:22;;;;;;;13.05;6.75;;;19.60;49.50;;;;;;5001763;28;20041;-86
2021/10/10 08:05:48;;;;;;;11.38;5.97;;;19.50;49.00;;;;;;4982514;28;20037;-86
2021/10/10 08:08:14;;;;;;;12.60;6.90;;;19.50;49.50;;;;;;5020681;28;20033;-86
2021/10/10 08:10:40;;;;;;;15.07;7.00;;;19.50;49.10;;;;;;5013346;28;20038;-87
2021/10/10 08:13:06;;;;;;;14.55;6.38;;;19.50;48.10;;;;;;5000590;28;20045;-86
2021/10/10 08:15:32;;;;;;;12.43;6.70;;;19.50;48.70;;;;;;5001127;28;20064;-85
2021/10/10 08:17:58;;;;;;;11.80;6.47;;;19.50;49.40;;;;;;5014709;28;20061;-85
2021/10/10 08:20:24;;;;;;;12.05;6.50;;;19.50;48.50;;;;;;5018631;28;20061;-85
2021/10/10 08:22:50;;;;;;;12.68;6.13;;;19.40;47.30;;;;;;5013649;28;20460;-89
2021/10/10 08:25:16;;;;;;;12.65;5.72;;;19.50;47.00;;;;;;4994024;28;20451;-84
2021/10/10 08:27:44;;;;;;;13.73;6.10;;;19.40;47.70;;;;;;4991446;28;20022;-85
2021/10/10 08:30:13;;;;;;;8.57;4.95;;;19.50;48.40;;;;;;5007908;28;20041;-84
2021/10/10 08:32:40;;;;;;;10.85;5.03;;;19.40;48.60;;;;;;4996529;28;20141;-84
2021/10/10 08:35:07;;;;;;;11.57;5.43;;;19.50;48.40;;;;;;5006869;28;20085;-83
2021/10/10 08:37:34;;;;;;;9.60;5.13;;;19.40;48.70;;;;;;4993617;28;20666;-82
2021/10/10 08:40:00;;;;;;;9.10;5.00;;;19.40;49.10;;;;;;5006397;28;20045;-83
2021/10/10 08:42:36;;;;;;;11.13;5.38;;;19.40;48.60;;;;;;5011622;28;20073;-81
2021/10/10 08:45:07;;;;;;;8.68;5.35;;;19.40;47.50;;;;;;5011020;28;20113;-86
2021/10/10 08:47:35;;;;;;;11.82;5.10;;;19.40;47.80;;;;;;4991957;28;20124;-86
2021/10/10 08:50:02;;;;;;;14.48;5.40;;;19.40;47.50;;;;;;5011366;28;20038;-82
2021/10/10 08:52:28;;;;;;;8.50;5.05;;;19.30;47.70;;;;;;4994556;28;20034;-84
2021/10/10 08:54:54;;;;;;;9.30;4.97;;;19.30;47.80;;;;;;5008861;28;20493;-86
2021/10/10 08:57:21;;;;;;;8.70;4.85;;;19.20;48.00;;;;;;5013139;28;21423;-82
2021/10/10 08:59:52;;;;;;;10.07;5.35;;;19.20;48.10;;;;;;5009155;28;20033;-81
2021/10/10 09:02:20;;;;;;;12.85;5.47;;;19.20;48.10;;;;;;5008212;28;20042;-83
2021/10/10 09:04:46;;;;;;;12.32;4.75;;;19.20;48.00;;;;;;5011169;28;20122;-84
2021/10/10 09:07:13;;;;;;;12.50;5.55;;;19.10;47.80;;;;;;5009866;28;20034;-86
2021/10/10 09:09:41;;;;;;;13.43;5.40;;;19.10;47.50;;;;;;5011780;28;20030;-83
2021/10/10 09:12:11;;;;;;;13.65;5.55;;;19.10;47.60;;;;;;4979828;28;20058;-84
2021/10/10 09:14:49;;;;;;;11.45;5.53;;;19.00;47.60;;;;;;5006795;28;20586;-86
2021/10/10 09:17:22;;;;;;;14.85;5.85;;;19.00;47.50;;;;;;5011037;28;20508;-85
2021/10/10 09:19:49;;;;;;;12.27;5.88;;;19.00;47.40;;;;;;5006399;28;20045;-83
2021/10/10 09:22:15;;;;;;;11.60;5.85;;;18.90;47.40;;;;;;5009491;28;20181;-84
2021/10/10 09:24:40;;;;;;;8.60;5.18;;;18.90;47.60;;;;;;5006850;28;20046;-86
2021/10/10 09:27:11;;;;;;;8.18;5.32;;;18.90;47.00;;;;;;4991504;28;20026;-83
2021/10/10 09:29:39;;;;;;;9.63;5.32;;;18.90;46.80;;;;;;5006030;28;20056;-83
2021/10/10 09:32:27;;;;;;;6.88;4.80;;;18.80;46.60;;;;;;5010945;28;20030;-82
2021/10/10 09:34:53;;;;;;;10.98;5.03;;;18.70;47.20;;;;;;5004721;28;20476;-82
2021/10/10 09:37:32;;;;;;;9.23;4.97;;;18.80;47.80;;;;;;5007418;28;20742;-83
2021/10/10 09:40:04;;;;;;;6.90;4.85;;;18.80;48.10;;;;;;4990750;28;20038;-83
2021/10/10 09:42:43;;;;;;;10.70;4.97;;;18.80;48.30;;;;;;5005777;28;20074;-84
2021/10/10 09:45:39;;;;;;;14.52;5.18;;;18.80;48.40;;;;;;4995713;28;20057;-85
2021/10/10 09:48:05;;;;;;;11.15;5.22;;;18.80;48.40;;;;;;5006340;28;20038;-83
2021/10/10 09:50:33;;;;;;;10.93;5.00;;;18.80;47.90;;;;;;4990557;28;20063;-83
2021/10/10 09:53:05;;;;;;;12.20;4.55;;;18.80;48.00;;;;;;4989992;28;20508;-85
2021/10/10 09:55:36;;;;;;;10.75;4.90;;;18.80;48.10;;;;;;5006098;28;20064;-86
2021/10/10 09:58:03;;;;;;;19.33;5.80;;;18.80;47.90;;;;;;4994582;28;20479;-87
2021/10/10 10:00:34;;;;;;;14.57;4.80;;;18.80;48.50;;;;;;5007852;28;20038;-86
2021/10/10 10:03:02;;;;;;;9.57;4.95;;;18.80;48.60;;;;;;5010804;28;20096;-85
2021/10/10 10:05:30;;;;;;;11.95;4.22;;;18.80;49.10;;;;;;4977105;28;20036;-86
2021/10/10 10:07:57;;;;;;;9.45;4.18;;;18.80;48.10;;;;;;5013258;28;20497;-86
2021/10/10 10:10:25;;;;;;;9.30;3.55;;;18.80;47.80;;;;;;5001581;28;20029;-86
2021/10/10 10:12:53;;;;;;;7.85;3.75;;;18.80;47.90;;;;;;4998325;28;20064;-86
2021/10/10 10:15:24;;;;;;;6.95;3.88;;;18.80;47.40;;;;;;5028123;28;20463;-85
2021/10/10 10:17:52;;;;;;;8.98;4.18;;;18.80;47.30;;;;;;5012888;28;20041;-86
2021/10/10 10:20:19;;;;;;;10.25;4.10;;;18.70;47.30;;;;;;4998328;28;20030;-85
2021/10/10 10:22:49;;;;;;;10.38;3.70;;;18.70;47.50;;;;;;4998874;28;20030;-85
2021/10/10 10:25:15;;;;;;;11.23;4.57;;;18.70;47.20;;;;;;5031063;28;20044;-85
2021/10/10 10:27:41;;;;;;;10.68;4.50;;;18.70;47.30;;;;;;5021439;28;20436;-87
2021/10/10 10:30:07;;;;;;;7.53;4.00;;;18.70;47.40;;;;;;4983987;28;20036;-85
2021/10/10 10:32:35;;;;;;;6.22;4.00;;;18.70;47.10;;;;;;4995993;28;20037;-87
2021/10/10 10:35:13;;;;;;;12.90;4.97;;;18.70;47.20;;;;;;5007984;28;20038;-85
2021/10/10 10:37:42;;;;;;;11.15;4.90;;;18.70;47.40;;;;;;4999190;28;20656;-85
2021/10/10 10:40:17;;;;;;;8.48;4.80;;;18.70;47.20;;;;;;4993694;28;20064;-86
2021/10/10 10:42:44;;;;;;;10.38;5.10;;;18.70;47.10;;;;;;4996453;28;20481;-87
2021/10/10 10:45:22;;;;;;;9.55;6.28;;;18.70;46.70;;;;;;5015861;28;20080;-86
2021/10/10 10:47:53;;;;;;;10.05;6.15;;;18.70;46.10;;;;;;4995423;28;20030;-86
2021/10/10 10:50:20;;;;;;;10.68;5.60;;;18.60;46.40;;;;;;5027814;28;20033;-86
2021/10/10 10:52:59;;;;;;;8.52;5.43;;;18.60;46.10;;;;;;5030387;28;20029;-85
2021/10/10 10:55:52;;;;;;;9.73;5.25;;;18.60;46.40;;;;;;4991478;28;20042;-86
2021/10/10 10:58:18;;;;;;;10.38;5.07;;;18.60;46.50;;;;;;4992468;28;20505;-90
2021/10/10 11:00:51;;;;;;;9.77;5.13;;;18.60;46.90;;;;;;5028721;28;20057;-89
2021/10/10 11:03:18;;;;;;;7.22;5.10;;;18.60;47.20;;;;;;5024518;28;20504;-88
2021/10/10 11:05:57;;;;;;;9.20;4.90;;;18.60;47.10;;;;;;4990056;28;20037;-90
2021/10/10 11:08:26;;;;;;;13.25;5.43;;;18.60;47.10;;;;;;5006379;28;20403;-91
2021/10/10 11:11:04;;;;;;;6.13;4.60;;;18.70;47.10;;;;;;5006738;28;20025;-89
2021/10/10 11:13:52;;;;;;;17.13;5.75;;;18.70;46.70;;;;;;5008218;28;20038;-90
2021/10/10 11:16:19;;;;;;;12.15;5.38;;;18.70;46.60;;;;;;5010557;28;20056;-90
2021/10/10 11:18:51;;;;;;;10.43;5.90;;;18.70;46.60;;;;;;5011651;28;20030;-89
2021/10/10 11:21:23;;;;;;;11.52;5.63;;;18.60;45.90;;;;;;5008734;28;20064;-89
2021/10/10 11:23:51;;;;;;;8.40;5.40;;;18.60;45.90;;;;;;5033818;28;20030;-87
2021/10/10 11:26:17;;;;;;;13.63;4.97;;;18.60;46.30;;;;;;5016720;28;20033;-89
2021/10/10 11:28:49;;;;;;;8.70;4.80;;;18.60;46.60;;;;;;5006132;28;20523;-89
2021/10/10 11:31:42;;;;;;;9.38;4.75;;;18.60;46.00;;;;;;5012907;28;20042;-90
2021/10/10 11:34:13;;;;;;;8.00;4.57;;;18.60;46.30;;;;;;5018670;28;20128;-90
2021/10/10 11:36:47;;;;;;;5.97;4.45;;;18.60;46.10;;;;;;5001696;28;20095;-89
2021/10/10 11:39:18;;;;;;;8.55;4.40;;;18.60;46.20;;;;;;5022130;28;20084;-88
2021/10/10 11:41:52;;;;;;;9.15;4.50;;;18.60;46.30;;;;;;5017006;28;20057;-89
2021/10/10 11:44:26;;;;;;;13.07;4.68;;;18.60;46.30;;;;;;5012064;28;20042;-83
2021/10/10 11:46:57;;;;;;;7.13;4.63;;;18.60;46.70;;;;;;5009814;28;20038;-83
2021/10/10 11:49:37;;;;;;;12.00;5.00;;;18.60;46.50;;;;;;5014247;28;20030;-87
2021/10/10 11:52:25;;;;;;;8.55;5.35;;;18.70;47.50;;;;;;4976128;28;20045;-89
2021/10/10 11:55:01;;;;;;;9.85;5.28;;;18.70;46.30;;;;;;5007944;28;20034;-90
2021/10/10 11:57:28;;;;;;;8.32;5.18;;;18.70;45.70;;;;;;5008884;28;20053;-90
2021/10/10 12:00:04;;;;;;;9.68;5.20;;;18.70;45.50;;;;;;5005241;28;20089;-92
2021/10/10 12:02:39;;;;;;;7.03;5.03;;;18.60;45.00;;;;;;5012594;28;20091;-90
2021/10/10 12:05:18;;;;;;;11.88;5.40;;;18.60;45.10;;;;;;5007575;28;20069;-82
2021/10/10 12:07:45;;;;;;;8.55;5.10;;;18.60;46.20;;;;;;5007375;28;20036;-86
2021/10/10 12:10:18;;;;;;;7.70;4.60;;;18.70;47.70;;;;;;5008403;28;20041;-85
2021/10/10 12:12:48;;;;;;;17.63;5.47;;;18.70;47.70;;;;;;5007854;28;20056;-85
2021/10/10 12:15:21;;;;;;;9.27;4.90;;;18.70;48.10;;;;;;5012534;28;20037;-92
2021/10/10 12:17:54;;;;;;;14.38;5.75;;;18.70;46.90;;;;;;5022537;28;20030;-87
2021/10/10 12:20:23;;;;;;;9.95;6.00;;;18.70;46.00;;;;;;5015892;28;20079;-86
2021/10/10 12:23:03;;;;;;;11.57;5.65;;;18.70;45.10;;;;;;5014598;28;20093;-89
2021/10/10 12:25:32;;;;;;;9.90;5.22;;;18.70;44.90;;;;;;5014806;28;20052;-90
2021/10/10 12:28:18;;;;;;;15.23;5.78;;;18.70;44.60;;;;;;5009613;28;20081;-89
2021/10/10 12:30:56;;;;;;;15.85;5.80;;;18.60;44.50;;;;;;5008310;28;20092;-89
2021/10/10 12:33:40;;;;;;;10.35;5.60;;;18.60;45.00;;;;;;5004760;28;20072;-94
2021/10/10 12:36:12;;;;;;;11.13;5.53;;;18.60;45.30;;;;;;5011434;28;20041;-94
2021/10/10 12:38:50;;;;;;;10.40;5.88;;;18.50;45.20;;;;;;5020921;28;20049;-95
2021/10/10 12:41:26;;;;;;;16.50;6.05;;;18.50;45.30;;;;;;5021603;28;20128;-92
2021/10/10 12:44:03;;;;;;;10.05;5.82;;;18.50;45.40;;;;;;5012636;28;20041;-86